sensor_id;sensor_type;location;lat;lon;timestamp;pressure;altitude;pressure_sealevel;temperature
61189;BMP280;47054;39.716;2.904;2023-01-23T00:00:21;100744.19;;;14.77
61189;BMP280;47054;39.716;2.904;2023-01-23T00:03:06;100742.63;;;14.76
61189;BMP280;47054;39.716;2.904;2023-01-23T00:06:01;100739.50;;;14.74
61189;BMP280;47054;39.716;2.904;2023-01-23T00:08:46;100742.97;;;14.75
61189;BMP280;47054;39.716;2.904;2023-01-23T00:11:30;100732.19;;;14.71
61189;BMP280;47054;39.716;2.904;2023-01-23T00:14:15;100731.72;;;14.69
61189;BMP280;47054;39.716;2.904;2023-01-23T00:17:00;100735.16;;;14.69
61189;BMP280;47054;39.716;2.904;2023-01-23T00:19:45;100739.81;;;14.73
61189;BMP280;47054;39.716;2.904;2023-01-23T00:22:29;100747.84;;;14.73
61189;BMP280;47054;39.716;2.904;2023-01-23T00:25:14;100732.84;;;14.68
61189;BMP280;47054;39.716;2.904;2023-01-23T00:27:59;100740.19;;;14.71
61189;BMP280;47054;39.716;2.904;2023-01-23T00:30:43;100740.97;;;14.72
61189;BMP280;47054;39.716;2.904;2023-01-23T00:33:28;100737.53;;;14.71
61189;BMP280;47054;39.716;2.904;2023-01-23T00:36:14;100731.41;;;14.71
61189;BMP280;47054;39.716;2.904;2023-01-23T00:38:59;100734.84;;;14.71
61189;BMP280;47054;39.716;2.904;2023-01-23T00:41:45;100729.72;;;14.66
61189;BMP280;47054;39.716;2.904;2023-01-23T00:44:30;100735.16;;;14.69
61189;BMP280;47054;39.716;2.904;2023-01-23T00:47:14;100732.50;;;14.69
61189;BMP280;47054;39.716;2.904;2023-01-23T00:49:59;100721.28;;;14.64
61189;BMP280;47054;39.716;2.904;2023-01-23T00:52:43;100717.94;;;14.67
61189;BMP280;47054;39.716;2.904;2023-01-23T00:55:28;100730.19;;;14.68
61189;BMP280;47054;39.716;2.904;2023-01-23T00:58:13;100730.19;;;14.68
61189;BMP280;47054;39.716;2.904;2023-01-23T01:00:58;100715.50;;;14.62
61189;BMP280;47054;39.716;2.904;2023-01-23T01:03:43;100722.84;;;14.65
61189;BMP280;47054;39.716;2.904;2023-01-23T01:06:28;100715.94;;;14.64
61189;BMP280;47054;39.716;2.904;2023-01-23T01:09:14;100725.16;;;14.66
61189;BMP280;47054;39.716;2.904;2023-01-23T01:11:58;100720.97;;;14.65
61189;BMP280;47054;39.716;2.904;2023-01-23T01:14:43;100722.38;;;14.63
61189;BMP280;47054;39.716;2.904;2023-01-23T01:17:28;100724.72;;;14.64
61189;BMP280;47054;39.716;2.904;2023-01-23T01:20:13;100715.16;;;14.63
61189;BMP280;47054;39.716;2.904;2023-01-23T01:22:58;100712.19;;;14.65
61189;BMP280;47054;39.716;2.904;2023-01-23T01:25:43;100714.06;;;14.64
61189;BMP280;47054;39.716;2.904;2023-01-23T01:28:29;100710.59;;;14.64
61189;BMP280;47054;39.716;2.904;2023-01-23T01:31:15;100707.06;;;14.60
61189;BMP280;47054;39.716;2.904;2023-01-23T01:34:00;100707.50;;;14.62
61189;BMP280;47054;39.716;2.904;2023-01-23T01:36:44;100707.50;;;14.62
61189;BMP280;47054;39.716;2.904;2023-01-23T01:39:30;100707.16;;;14.63
61189;BMP280;47054;39.716;2.904;2023-01-23T01:42:15;100707.50;;;14.62
61189;BMP280;47054;39.716;2.904;2023-01-23T01:45:01;100710.16;;;14.62
61189;BMP280;47054;39.716;2.904;2023-01-23T01:47:46;100706.72;;;14.61
61189;BMP280;47054;39.716;2.904;2023-01-23T01:50:30;100704.03;;;14.61
61189;BMP280;47054;39.716;2.904;2023-01-23T01:53:15;100687.44;;;14.56
61189;BMP280;47054;39.716;2.904;2023-01-23T01:56:00;100703.25;;;14.61
61189;BMP280;47054;39.716;2.904;2023-01-23T01:58:46;100703.25;;;14.61
61189;BMP280;47054;39.716;2.904;2023-01-23T02:01:33;100697.03;;;14.57
61189;BMP280;47054;39.716;2.904;2023-01-23T02:04:21;100695.59;;;14.59
61189;BMP280;47054;39.716;2.904;2023-01-23T02:07:10;100699.38;;;14.58
61189;BMP280;47054;39.716;2.904;2023-01-23T02:09:56;100700.47;;;14.57
61189;BMP280;47054;39.716;2.904;2023-01-23T02:12:46;100700.13;;;14.59
61189;BMP280;47054;39.716;2.904;2023-01-23T02:15:31;100698.91;;;14.56
61189;BMP280;47054;39.716;2.904;2023-01-23T02:18:16;100691.69;;;14.57
61189;BMP280;47054;39.716;2.904;2023-01-23T02:21:06;100695.94;;;14.58
61189;BMP280;47054;39.716;2.904;2023-01-23T02:26:45;100697.34;;;14.55
61189;BMP280;47054;39.716;2.904;2023-01-23T02:29:44;100682.78;;;14.53
61189;BMP280;47054;39.716;2.904;2023-01-23T02:32:33;100688.56;;;14.55
61189;BMP280;47054;39.716;2.904;2023-01-23T02:35:25;100702.69;;;14.55
61189;BMP280;47054;39.716;2.904;2023-01-23T02:38:13;100693.13;;;14.54
61189;BMP280;47054;39.716;2.904;2023-01-23T02:41:00;100695.78;;;14.54
61189;BMP280;47054;39.716;2.904;2023-01-23T02:43:47;100691.59;;;14.53
61189;BMP280;47054;39.716;2.904;2023-01-23T02:46:33;100693.47;;;14.53
61189;BMP280;47054;39.716;2.904;2023-01-23T02:49:18;100678.13;;;14.50
61189;BMP280;47054;39.716;2.904;2023-01-23T02:52:05;100673.56;;;14.50
61189;BMP280;47054;39.716;2.904;2023-01-23T02:54:52;100685.81;;;14.51
61189;BMP280;47054;39.716;2.904;2023-01-23T02:57:37;100664.66;;;14.46
61189;BMP280;47054;39.716;2.904;2023-01-23T03:00:21;100673.22;;;14.52
61189;BMP280;47054;39.716;2.904;2023-01-23T03:03:06;100662.88;;;14.50
61189;BMP280;47054;39.716;2.904;2023-01-23T03:05:52;100672.78;;;14.50
61189;BMP280;47054;39.716;2.904;2023-01-23T03:08:38;100661.00;;;14.51
61189;BMP280;47054;39.716;2.904;2023-01-23T03:11:31;100664.00;;;14.49
61189;BMP280;47054;39.716;2.904;2023-01-23T03:14:20;100659.44;;;14.50
61189;BMP280;47054;39.716;2.904;2023-01-23T03:17:06;100661.69;;;14.48
61189;BMP280;47054;39.716;2.904;2023-01-23T03:19:53;100656.66;;;14.46
61189;BMP280;47054;39.716;2.904;2023-01-23T03:22:38;100655.19;;;14.49
61189;BMP280;47054;39.716;2.904;2023-01-23T03:25:25;100665.13;;;14.48
61189;BMP280;47054;39.716;2.904;2023-01-23T03:28:10;100662.00;;;14.46
61189;BMP280;47054;39.716;2.904;2023-01-23T03:31:13;100657.53;;;14.38
61189;BMP280;47054;39.716;2.904;2023-01-23T03:33:58;100657.22;;;14.40
61189;BMP280;47054;39.716;2.904;2023-01-23T03:36:42;100655.22;;;14.37
61189;BMP280;47054;39.716;2.904;2023-01-23T03:39:28;100653.88;;;14.43
61189;BMP280;47054;39.716;2.904;2023-01-23T03:42:35;100647.97;;;14.37
61189;BMP280;47054;39.716;2.904;2023-01-23T03:45:21;100651.19;;;14.43
61189;BMP280;47054;39.716;2.904;2023-01-23T03:48:05;100642.78;;;14.41
61189;BMP280;47054;39.716;2.904;2023-01-23T03:50:51;100634.31;;;14.39
61189;BMP280;47054;39.716;2.904;2023-01-23T03:53:38;100625.53;;;14.38
61189;BMP280;47054;39.716;2.904;2023-01-23T03:56:23;100633.66;;;14.42
61189;BMP280;47054;39.716;2.904;2023-01-23T03:59:08;100631.78;;;14.42
61189;BMP280;47054;39.716;2.904;2023-01-23T04:01:53;100634.78;;;14.41
61189;BMP280;47054;39.716;2.904;2023-01-23T04:04:39;100632.88;;;14.41
61189;BMP280;47054;39.716;2.904;2023-01-23T04:07:26;100625.66;;;14.42
61189;BMP280;47054;39.716;2.904;2023-01-23T04:10:10;100630.53;;;14.40
61189;BMP280;47054;39.716;2.904;2023-01-23T04:12:55;100638.19;;;14.41
61189;BMP280;47054;39.716;2.904;2023-01-23T04:15:40;100630.19;;;14.41
61189;BMP280;47054;39.716;2.904;2023-01-23T04:18:25;100640.13;;;14.41
61189;BMP280;47054;39.716;2.904;2023-01-23T04:21:10;100637.75;;;14.39
61189;BMP280;47054;39.716;2.904;2023-01-23T04:23:56;100642.00;;;14.40
61189;BMP280;47054;39.716;2.904;2023-01-23T04:26:40;100642.00;;;14.40
61189;BMP280;47054;39.716;2.904;2023-01-23T04:29:25;100628.19;;;14.38
61189;BMP280;47054;39.716;2.904;2023-01-23T04:32:11;100622.09;;;14.38
61189;BMP280;47054;39.716;2.904;2023-01-23T04:35:01;100622.09;;;14.38
61189;BMP280;47054;39.716;2.904;2023-01-23T04:37:46;100626.66;;;14.37
61189;BMP280;47054;39.716;2.904;2023-01-23T04:40:31;100621.31;;;14.37
61189;BMP280;47054;39.716;2.904;2023-01-23T04:43:17;100613.66;;;14.36
61189;BMP280;47054;39.716;2.904;2023-01-23T04:46:07;100615.19;;;14.37
61189;BMP280;47054;39.716;2.904;2023-01-23T04:49:04;100612.06;;;14.35
61189;BMP280;47054;39.716;2.904;2023-01-23T04:51:51;100610.97;;;14.36
61189;BMP280;47054;39.716;2.904;2023-01-23T04:54:39;100602.97;;;14.36
61189;BMP280;47054;39.716;2.904;2023-01-23T04:57:24;100606.00;;;14.34
61189;BMP280;47054;39.716;2.904;2023-01-23T05:00:15;100605.22;;;14.34
61189;BMP280;47054;39.716;2.904;2023-01-23T05:03:00;100614.00;;;14.34
61189;BMP280;47054;39.716;2.904;2023-01-23T05:05:47;100610.53;;;14.34
61189;BMP280;47054;39.716;2.904;2023-01-23T05:08:31;100602.44;;;14.30
61189;BMP280;47054;39.716;2.904;2023-01-23T05:11:39;100610.84;;;14.32
61189;BMP280;47054;39.716;2.904;2023-01-23T05:14:26;100616.19;;;14.32
61189;BMP280;47054;39.716;2.904;2023-01-23T05:17:11;100610.06;;;14.32
61189;BMP280;47054;39.716;2.904;2023-01-23T05:20:04;100611.94;;;14.31
61189;BMP280;47054;39.716;2.904;2023-01-23T05:22:49;100609.28;;;14.31
61189;BMP280;47054;39.716;2.904;2023-01-23T05:25:44;100607.78;;;14.30
61189;BMP280;47054;39.716;2.904;2023-01-23T05:28:28;100599.78;;;14.30
61189;BMP280;47054;39.716;2.904;2023-01-23T05:31:13;100600.88;;;14.29
61189;BMP280;47054;39.716;2.904;2023-01-23T05:34:06;100613.09;;;14.30
61189;BMP280;47054;39.716;2.904;2023-01-23T05:36:54;100599.94;;;14.25
61189;BMP280;47054;39.716;2.904;2023-01-23T05:39:39;100610.75;;;14.29
61189;BMP280;47054;39.716;2.904;2023-01-23T05:42:23;100600.09;;;14.29
61189;BMP280;47054;39.716;2.904;2023-01-23T05:45:40;100603.09;;;14.27
61189;BMP280;47054;39.716;2.904;2023-01-23T05:48:32;100588.09;;;14.23
61189;BMP280;47054;39.716;2.904;2023-01-23T05:51:18;100592.41;;;14.27
61189;BMP280;47054;39.716;2.904;2023-01-23T05:54:03;100596.19;;;14.26
61189;BMP280;47054;39.716;2.904;2023-01-23T05:56:48;100599.63;;;14.27
61189;BMP280;47054;39.716;2.904;2023-01-23T05:59:51;100601.06;;;14.24
61189;BMP280;47054;39.716;2.904;2023-01-23T06:02:58;100605.66;;;14.24
61189;BMP280;47054;39.716;2.904;2023-01-23T06:06:02;100608.31;;;14.24
61189;BMP280;47054;39.716;2.904;2023-01-23T06:08:47;100618.22;;;14.23
61189;BMP280;47054;39.716;2.904;2023-01-23T06:11:31;100628.09;;;14.23
61189;BMP280;47054;39.716;2.904;2023-01-23T06:14:16;100626.22;;;14.23
61189;BMP280;47054;39.716;2.904;2023-01-23T06:17:01;100631.53;;;14.23
61189;BMP280;47054;39.716;2.904;2023-01-23T06:19:46;100612.63;;;14.16
61189;BMP280;47054;39.716;2.904;2023-01-23T06:22:33;100621.19;;;14.22
61189;BMP280;47054;39.716;2.904;2023-01-23T06:25:25;100613.09;;;14.18
61189;BMP280;47054;39.716;2.904;2023-01-23T06:28:12;100619.63;;;14.21
61189;BMP280;47054;39.716;2.904;2023-01-23T06:31:00;100615.84;;;14.22
61189;BMP280;47054;39.716;2.904;2023-01-23T06:33:54;100603.97;;;14.19
61189;BMP280;47054;39.716;2.904;2023-01-23T06:36:45;100609.63;;;14.18
61189;BMP280;47054;39.716;2.904;2023-01-23T06:39:31;100614.19;;;14.17
61189;BMP280;47054;39.716;2.904;2023-01-23T06:42:18;100612.28;;;14.18
61189;BMP280;47054;39.716;2.904;2023-01-23T06:45:08;100606.19;;;14.17
61189;BMP280;47054;39.716;2.904;2023-01-23T06:47:53;100617.88;;;14.13
61189;BMP280;47054;39.716;2.904;2023-01-23T06:50:38;100611.84;;;14.16
61189;BMP280;47054;39.716;2.904;2023-01-23T06:53:23;100605.72;;;14.15
61189;BMP280;47054;39.716;2.904;2023-01-23T06:56:09;100601.19;;;14.16
61189;BMP280;47054;39.716;2.904;2023-01-23T06:58:55;100596.16;;;14.14
61189;BMP280;47054;39.716;2.904;2023-01-23T07:01:45;100588.16;;;14.14
61189;BMP280;47054;39.716;2.904;2023-01-23T07:04:31;100589.28;;;14.13
61189;BMP280;47054;39.716;2.904;2023-01-23T07:07:17;100591.97;;;14.13
61189;BMP280;47054;39.716;2.904;2023-01-23T07:10:05;100579.75;;;14.12
61189;BMP280;47054;39.716;2.904;2023-01-23T07:12:50;100578.41;;;14.06
61189;BMP280;47054;39.716;2.904;2023-01-23T07:15:35;100583.50;;;14.11
61189;BMP280;47054;39.716;2.904;2023-01-23T07:18:21;100580.31;;;14.06
61189;BMP280;47054;39.716;2.904;2023-01-23T07:21:06;100580.41;;;14.09
61189;BMP280;47054;39.716;2.904;2023-01-23T07:23:51;100588.06;;;14.11
61189;BMP280;47054;39.716;2.904;2023-01-23T07:26:36;100586.19;;;14.11
61189;BMP280;47054;39.716;2.904;2023-01-23T07:29:20;100593.41;;;14.11
61189;BMP280;47054;39.716;2.904;2023-01-23T07:32:05;100600.94;;;14.09
61189;BMP280;47054;39.716;2.904;2023-01-23T07:34:49;100593.75;;;14.09
61189;BMP280;47054;39.716;2.904;2023-01-23T07:37:36;100599.38;;;14.08
61189;BMP280;47054;39.716;2.904;2023-01-23T07:40:20;100601.72;;;14.09
61189;BMP280;47054;39.716;2.904;2023-01-23T07:43:05;100597.50;;;14.08
61189;BMP280;47054;39.716;2.904;2023-01-23T07:45:49;100599.38;;;14.08
61189;BMP280;47054;39.716;2.904;2023-01-23T07:48:36;100588.72;;;14.08
61189;BMP280;47054;39.716;2.904;2023-01-23T07:51:20;100599.38;;;14.08
61189;BMP280;47054;39.716;2.904;2023-01-23T07:54:05;100600.53;;;14.07
61189;BMP280;47054;39.716;2.904;2023-01-23T07:56:49;100591.94;;;14.01
61189;BMP280;47054;39.716;2.904;2023-01-23T07:59:34;100607.75;;;14.06
61189;BMP280;47054;39.716;2.904;2023-01-23T08:02:19;100598.97;;;14.06
61189;BMP280;47054;39.716;2.904;2023-01-23T08:05:04;100603.06;;;14.03
61189;BMP280;47054;39.716;2.904;2023-01-23T08:07:49;100603.50;;;14.05
61189;BMP280;47054;39.716;2.904;2023-01-23T08:10:33;100601.94;;;14.04
61189;BMP280;47054;39.716;2.904;2023-01-23T08:13:18;100606.50;;;14.04
61189;BMP280;47054;39.716;2.904;2023-01-23T08:16:03;100601.94;;;14.04
61189;BMP280;47054;39.716;2.904;2023-01-23T08:18:48;100606.50;;;14.04
61189;BMP280;47054;39.716;2.904;2023-01-23T08:21:33;100609.16;;;14.04
61189;BMP280;47054;39.716;2.904;2023-01-23T08:24:17;100612.94;;;14.03
61189;BMP280;47054;39.716;2.904;2023-01-23T08:27:02;100603.72;;;14.00
61189;BMP280;47054;39.716;2.904;2023-01-23T08:29:47;100604.06;;;13.99
61189;BMP280;47054;39.716;2.904;2023-01-23T08:32:34;100611.06;;;14.03
61189;BMP280;47054;39.716;2.904;2023-01-23T08:35:19;100617.50;;;14.02
61189;BMP280;47054;39.716;2.904;2023-01-23T08:38:03;100619.38;;;14.02
61189;BMP280;47054;39.716;2.904;2023-01-23T08:41:09;100619.38;;;14.02
61189;BMP280;47054;39.716;2.904;2023-01-23T08:43:55;100621.63;;;14.00
61189;BMP280;47054;39.716;2.904;2023-01-23T08:46:45;100626.59;;;14.01
61189;BMP280;47054;39.716;2.904;2023-01-23T08:49:29;100627.72;;;14.00
61189;BMP280;47054;39.716;2.904;2023-01-23T08:52:14;100631.16;;;14.01
61189;BMP280;47054;39.716;2.904;2023-01-23T08:54:58;100636.06;;;13.99
61189;BMP280;47054;39.716;2.904;2023-01-23T08:57:43;100625.03;;;14.00
61189;BMP280;47054;39.716;2.904;2023-01-23T09:00:28;100624.59;;;13.98
61189;BMP280;47054;39.716;2.904;2023-01-23T09:03:12;100628.84;;;13.99
61189;BMP280;47054;39.716;2.904;2023-01-23T09:06:00;100620.06;;;13.99
61189;BMP280;47054;39.716;2.904;2023-01-23T09:08:45;100627.56;;;13.97
61189;BMP280;47054;39.716;2.904;2023-01-23T09:11:30;100624.91;;;13.97
61189;BMP280;47054;39.716;2.904;2023-01-23T09:14:15;100624.91;;;13.97
61189;BMP280;47054;39.716;2.904;2023-01-23T09:17:00;100626.03;;;13.96
61189;BMP280;47054;39.716;2.904;2023-01-23T09:19:44;100622.59;;;13.95
61189;BMP280;47054;39.716;2.904;2023-01-23T09:22:29;100623.38;;;13.96
61189;BMP280;47054;39.716;2.904;2023-01-23T09:25:13;100629.69;;;13.91
61189;BMP280;47054;39.716;2.904;2023-01-23T09:27:58;100628.69;;;13.96
61189;BMP280;47054;39.716;2.904;2023-01-23T09:30:42;100644.25;;;13.93
61189;BMP280;47054;39.716;2.904;2023-01-23T09:33:26;100648.78;;;13.93
61189;BMP280;47054;39.716;2.904;2023-01-23T09:36:11;100645.03;;;13.94
61189;BMP280;47054;39.716;2.904;2023-01-23T09:38:56;100644.59;;;13.92
61189;BMP280;47054;39.716;2.904;2023-01-23T09:41:43;100646.91;;;13.93
61189;BMP280;47054;39.716;2.904;2023-01-23T09:44:40;100639.72;;;13.94
61189;BMP280;47054;39.716;2.904;2023-01-23T09:47:37;100648.78;;;13.93
61189;BMP280;47054;39.716;2.904;2023-01-23T09:50:26;100651.69;;;13.88
61189;BMP280;47054;39.716;2.904;2023-01-23T09:53:14;100651.31;;;13.89
61189;BMP280;47054;39.716;2.904;2023-01-23T09:56:05;100645.44;;;13.84
61189;BMP280;47054;39.716;2.904;2023-01-23T10:01:46;100650.91;;;13.87
61189;BMP280;47054;39.716;2.904;2023-01-23T10:04:31;100653.56;;;13.87
61189;BMP280;47054;39.716;2.904;2023-01-23T10:11:10;100665.03;;;13.88
61189;BMP280;47054;39.716;2.904;2023-01-23T10:23:09;100654.53;;;13.83
61189;BMP280;47054;39.716;2.904;2023-01-23T10:25:56;100657.19;;;13.83
61189;BMP280;47054;39.716;2.904;2023-01-23T10:28:42;100648.31;;;13.79
61189;BMP280;47054;39.716;2.904;2023-01-23T10:34:28;100657.97;;;13.83
61189;BMP280;47054;39.716;2.904;2023-01-23T10:40:17;100648.47;;;13.82
61189;BMP280;47054;39.716;2.904;2023-01-23T10:43:21;100648.78;;;13.81
61189;BMP280;47054;39.716;2.904;2023-01-23T10:46:30;100650.66;;;13.80
61189;BMP280;47054;39.716;2.904;2023-01-23T10:52:33;100636.00;;;13.74
61189;BMP280;47054;39.716;2.904;2023-01-23T10:58:03;100644.88;;;13.78
61189;BMP280;47054;39.716;2.904;2023-01-23T11:00:50;100640.63;;;13.77
61189;BMP280;47054;39.716;2.904;2023-01-23T11:03:35;100643.00;;;13.79
61189;BMP280;47054;39.716;2.904;2023-01-23T11:06:21;100642.22;;;13.78
61189;BMP280;47054;39.716;2.904;2023-01-23T11:09:19;100635.75;;;13.79
61189;BMP280;47054;39.716;2.904;2023-01-23T11:12:05;100642.22;;;13.78
61189;BMP280;47054;39.716;2.904;2023-01-23T11:14:50;100625.63;;;13.73
61189;BMP280;47054;39.716;2.904;2023-01-23T11:17:36;100638.75;;;13.78
61189;BMP280;47054;39.716;2.904;2023-01-23T11:25:55;100636.09;;;13.78
61189;BMP280;47054;39.716;2.904;2023-01-23T11:28:47;100637.97;;;13.77
61189;BMP280;47054;39.716;2.904;2023-01-23T11:31:32;100628.41;;;13.76
61189;BMP280;47054;39.716;2.904;2023-01-23T11:34:20;100619.66;;;13.76
61189;BMP280;47054;39.716;2.904;2023-01-23T11:37:13;100620.41;;;13.76
61189;BMP280;47054;39.716;2.904;2023-01-23T11:40:06;100614.66;;;13.74
61189;BMP280;47054;39.716;2.904;2023-01-23T11:42:51;100604.41;;;13.76
61189;BMP280;47054;39.716;2.904;2023-01-23T11:49:19;100597.09;;;13.73
61189;BMP280;47054;39.716;2.904;2023-01-23T11:59:14;100571.88;;;13.71
61189;BMP280;47054;39.716;2.904;2023-01-23T12:05:18;100559.34;;;13.71
61189;BMP280;47054;39.716;2.904;2023-01-23T12:11:11;100564.69;;;13.71
61189;BMP280;47054;39.716;2.904;2023-01-23T12:14:04;100557.47;;;13.72
61189;BMP280;47054;39.716;2.904;2023-01-23T12:23:00;100539.91;;;13.71
61189;BMP280;47054;39.716;2.904;2023-01-23T12:43:54;100520.47;;;13.70
61189;BMP280;47054;39.716;2.904;2023-01-23T12:52:40;100513.28;;;13.71
61189;BMP280;47054;39.716;2.904;2023-01-23T12:55:34;100511.94;;;13.65
61189;BMP280;47054;39.716;2.904;2023-01-23T12:58:19;100513.16;;;13.67
61189;BMP280;47054;39.716;2.904;2023-01-23T13:01:22;100507.94;;;13.71
61189;BMP280;47054;39.716;2.904;2023-01-23T13:26:55;100504.03;;;13.56
61189;BMP280;47054;39.716;2.904;2023-01-23T13:29:47;100485.72;;;13.55
61189;BMP280;47054;39.716;2.904;2023-01-23T13:32:33;100501.94;;;13.62
61189;BMP280;47054;39.716;2.904;2023-01-23T13:38:32;100506.25;;;13.66
61189;BMP280;47054;39.716;2.904;2023-01-23T13:41:29;100497.19;;;13.67
61189;BMP280;47054;39.716;2.904;2023-01-23T13:44:26;100496.09;;;13.68
61189;BMP280;47054;39.716;2.904;2023-01-23T13:47:28;100507.03;;;13.67
61189;BMP280;47054;39.716;2.904;2023-01-23T13:50:40;100513.94;;;13.68
61189;BMP280;47054;39.716;2.904;2023-01-23T13:53:27;100519.34;;;13.59
61189;BMP280;47054;39.716;2.904;2023-01-23T13:56:45;100537.16;;;13.67
61189;BMP280;47054;39.716;2.904;2023-01-23T13:59:41;100539.47;;;13.69
61189;BMP280;47054;39.716;2.904;2023-01-23T14:02:35;100545.94;;;13.68
61189;BMP280;47054;39.716;2.904;2023-01-23T14:05:39;100535.56;;;13.54
61189;BMP280;47054;39.716;2.904;2023-01-23T14:08:23;100565.22;;;13.65
61189;BMP280;47054;39.716;2.904;2023-01-23T14:11:20;100569.13;;;13.67
61189;BMP280;47054;39.716;2.904;2023-01-23T14:14:05;100568.78;;;13.69
61189;BMP280;47054;39.716;2.904;2023-01-23T14:17:10;100572.22;;;13.69
61189;BMP280;47054;39.716;2.904;2023-01-23T14:20:01;100566.91;;;13.69
61189;BMP280;47054;39.716;2.904;2023-01-23T14:22:47;100568.78;;;13.69
61189;BMP280;47054;39.716;2.904;2023-01-23T14:25:32;100572.22;;;13.69
61189;BMP280;47054;39.716;2.904;2023-01-23T14:28:17;100566.91;;;13.69
61189;BMP280;47054;39.716;2.904;2023-01-23T14:31:04;100564.09;;;13.66
61189;BMP280;47054;39.716;2.904;2023-01-23T14:33:50;100566.91;;;13.69
61189;BMP280;47054;39.716;2.904;2023-01-23T14:36:43;100571.44;;;13.69
61189;BMP280;47054;39.716;2.904;2023-01-23T14:39:29;100573.00;;;13.70
61189;BMP280;47054;39.716;2.904;2023-01-23T14:42:25;100572.22;;;13.69
61189;BMP280;47054;39.716;2.904;2023-01-23T14:45:12;100571.44;;;13.69
61189;BMP280;47054;39.716;2.904;2023-01-23T14:47:57;100568.78;;;13.69
61189;BMP280;47054;39.716;2.904;2023-01-23T14:50:42;100576.03;;;13.68
61189;BMP280;47054;39.716;2.904;2023-01-23T14:53:27;100581.34;;;13.68
61189;BMP280;47054;39.716;2.904;2023-01-23T14:56:11;100582.88;;;13.69
61189;BMP280;47054;39.716;2.904;2023-01-23T14:58:58;100583.69;;;13.70
61189;BMP280;47054;39.716;2.904;2023-01-23T15:01:52;100579.88;;;13.71
61189;BMP280;47054;39.716;2.904;2023-01-23T15:04:38;100576.03;;;13.68
61189;BMP280;47054;39.716;2.904;2023-01-23T15:07:23;100574.44;;;13.67
61189;BMP280;47054;39.716;2.904;2023-01-23T15:10:16;100573.00;;;13.70
61189;BMP280;47054;39.716;2.904;2023-01-23T15:15:52;100569.75;;;13.64
61189;BMP280;47054;39.716;2.904;2023-01-23T15:18:38;100568.03;;;13.68
61189;BMP280;47054;39.716;2.904;2023-01-23T15:21:37;100563.78;;;13.67
61189;BMP280;47054;39.716;2.904;2023-01-23T15:24:27;100560.78;;;13.69
61189;BMP280;47054;39.716;2.904;2023-01-23T15:27:33;100560.03;;;13.68
61189;BMP280;47054;39.716;2.904;2023-01-23T15:30:46;100550.47;;;13.67
61189;BMP280;47054;39.716;2.904;2023-01-23T15:33:32;100547.22;;;13.62
61189;BMP280;47054;39.716;2.904;2023-01-23T15:36:26;100555.78;;;13.67
61189;BMP280;47054;39.716;2.904;2023-01-23T15:39:24;100562.69;;;13.68
61189;BMP280;47054;39.716;2.904;2023-01-23T15:44:57;100566.47;;;13.67
61189;BMP280;47054;39.716;2.904;2023-01-23T15:47:44;100568.34;;;13.67
61189;BMP280;47054;39.716;2.904;2023-01-23T15:50:28;100559.56;;;13.66
61189;BMP280;47054;39.716;2.904;2023-01-23T15:53:13;100568.03;;;13.68
61189;BMP280;47054;39.716;2.904;2023-01-23T15:55:58;100571.44;;;13.69
61189;BMP280;47054;39.716;2.904;2023-01-23T15:58:43;100559.25;;;13.68
61189;BMP280;47054;39.716;2.904;2023-01-23T16:01:28;100568.78;;;13.69
61189;BMP280;47054;39.716;2.904;2023-01-23T16:04:12;100563.44;;;13.69
61189;BMP280;47054;39.716;2.904;2023-01-23T16:07:05;100560.03;;;13.68
61189;BMP280;47054;39.716;2.904;2023-01-23T16:09:51;100564.56;;;13.68
61189;BMP280;47054;39.716;2.904;2023-01-23T16:12:36;100563.44;;;13.69
61189;BMP280;47054;39.716;2.904;2023-01-23T16:15:26;100574.91;;;13.69
61189;BMP280;47054;39.716;2.904;2023-01-23T16:18:11;100576.78;;;13.69
61189;BMP280;47054;39.716;2.904;2023-01-23T16:20:55;100579.44;;;13.69
61189;BMP280;47054;39.716;2.904;2023-01-23T16:23:39;100576.03;;;13.68
61189;BMP280;47054;39.716;2.904;2023-01-23T16:26:26;100577.56;;;13.69
61189;BMP280;47054;39.716;2.904;2023-01-23T16:29:29;100580.22;;;13.69
61189;BMP280;47054;39.716;2.904;2023-01-23T16:32:14;100583.53;;;13.66
61189;BMP280;47054;39.716;2.904;2023-01-23T16:34:58;100555.75;;;13.55
61189;BMP280;47054;39.716;2.904;2023-01-23T16:37:47;100578.69;;;13.68
61189;BMP280;47054;39.716;2.904;2023-01-23T16:40:32;100580.56;;;13.68
61189;BMP280;47054;39.716;2.904;2023-01-23T16:43:18;100584.31;;;13.67
61189;BMP280;47054;39.716;2.904;2023-01-23T16:46:03;100582.44;;;13.67
61189;BMP280;47054;39.716;2.904;2023-01-23T16:48:48;100575.22;;;13.68
61189;BMP280;47054;39.716;2.904;2023-01-23T16:51:37;100582.09;;;13.69
61189;BMP280;47054;39.716;2.904;2023-01-23T16:54:22;100590.09;;;13.69
61189;BMP280;47054;39.716;2.904;2023-01-23T16:57:13;100592.00;;;13.68
61189;BMP280;47054;39.716;2.904;2023-01-23T17:00:00;100594.66;;;13.68
61189;BMP280;47054;39.716;2.904;2023-01-23T17:03:06;100594.19;;;13.66
61189;BMP280;47054;39.716;2.904;2023-01-23T17:05:51;100599.22;;;13.68
61189;BMP280;47054;39.716;2.904;2023-01-23T17:08:36;100610.97;;;13.67
61189;BMP280;47054;39.716;2.904;2023-01-23T17:11:33;100611.75;;;13.67
61189;BMP280;47054;39.716;2.904;2023-01-23T17:14:23;100617.38;;;13.66
61189;BMP280;47054;39.716;2.904;2023-01-23T17:17:11;100609.09;;;13.67
61189;BMP280;47054;39.716;2.904;2023-01-23T17:19:58;100614.41;;;13.67
61189;BMP280;47054;39.716;2.904;2023-01-23T17:22:44;100617.09;;;13.67
61189;BMP280;47054;39.716;2.904;2023-01-23T17:25:29;100624.28;;;13.67
61189;BMP280;47054;39.716;2.904;2023-01-23T17:28:16;100619.75;;;13.67
61189;BMP280;47054;39.716;2.904;2023-01-23T17:31:01;100613.19;;;13.65
61189;BMP280;47054;39.716;2.904;2023-01-23T17:33:45;100622.72;;;13.66
61189;BMP280;47054;39.716;2.904;2023-01-23T17:36:30;100626.16;;;13.66
61189;BMP280;47054;39.716;2.904;2023-01-23T17:39:15;100624.94;;;13.64
61189;BMP280;47054;39.716;2.904;2023-01-23T17:41:59;100628.06;;;13.66
61189;BMP280;47054;39.716;2.904;2023-01-23T17:44:44;100629.94;;;13.65
61189;BMP280;47054;39.716;2.904;2023-01-23T17:47:31;100634.94;;;13.67